Latest Weather Observations for Kowen Forest

IDN60801

Issued at 2:22 am EDT Saturday 29 February 2020 (issued every 10 minutes, with the page automatically refreshed every 10 minutes)

About weather observations | Map of weather stations | Latest weather observations for NSW | Other Formats
Station Details ID: 250071 Name: KOWEN FOREST (PCS) Lat: -35.31 Lon: 149.32 Height: 720.0 m

Portable automatic weather stations (PAWS) are operated by other organisations, such as Fire and Emergency Services, and are included here by agreement. Portable stations may be deployed to a location for a short period and their location may be subject to change without notice. Wind observations from these stations are provided from heights of either three (3) or ten (10) metres above ground level (AGL).

Data from the previous 72 hours. | See also: Recent months for locations in New South Wales
Date/Time
EDT
Temp
°C
App
Temp
°C
Dew
Point
°C
Rel
Hum
%
Delta-T
°C
Wind Press
QNH
hPa
Press
MSL
hPa
Rain since
9am
mm
Dir  Spd
km/h
Gust
km/h
Spd
kts
Gust
kts
29/02:00am 13.2 12.6 11.6 90 0.9 ESE 6 7 3 4 - - 0.0
29/01:50am 13.3 12.7 11.6 89 0.9 E 6 7 3 4 - - 0.0
29/01:40am 13.5 12.7 11.6 88 1.1 ESE 7 9 4 5 - - 0.0
29/01:30am 13.5 12.7 11.6 88 1.1 ESE 7 7 4 4 - - 0.0
29/01:20am 13.7 12.9 11.6 87 1.2 ESE 7 9 4 5 - - 0.0
29/01:10am 13.8 13.1 11.5 86 1.3 ESE 6 7 3 4 - - 0.0
29/01:00am 13.9 13.0 11.5 85 1.3 E 7 11 4 6 - - 0.0
29/12:50am 13.9 12.7 11.5 85 1.3 E 9 13 5 7 - - 0.0
29/12:40am 14.0 12.7 11.4 84 1.4 E 9 11 5 6 - - 0.0
29/12:30am 14.1 12.8 11.3 83 1.5 E 9 13 5 7 - - 0.0
29/12:20am 14.2 12.9 11.3 83 1.6 E 9 13 5 7 - - 0.0
29/12:10am 14.3 13.0 11.3 82 1.7 E 9 11 5 6 - - 0.0
29/12:00am 14.4 13.1 11.2 81 1.8 E 9 11 5 6 - - 0.0
 
Date/Time
EDT
Temp
°C
App
Temp
°C
Dew
Point
°C
Rel
Hum
%
Delta-T
°C
Wind Press
QNH
hPa
Press
MSL
hPa
Rain since
9am
mm
Dir  Spd
km/h
Gust
km/h
Spd
kts
Gust
kts
28/11:50pm 14.4 13.0 11.0 80 1.9 E 9 13 5 7 - - 0.0
28/11:40pm 14.2 12.8 10.9 80 1.8 E 9 9 5 5 - - 0.0
28/11:30pm 14.1 12.7 10.9 81 1.8 E 9 11 5 6 - - 0.0
28/11:20pm 14.2 13.2 10.9 80 1.8 E 7 11 4 6 - - 0.0
28/11:10pm 14.1 12.7 10.8 80 1.8 E 9 13 5 7 - - 0.0
28/11:00pm 14.1 12.3 10.8 80 1.8 E 11 15 6 8 - - 0.0
28/10:50pm 14.1 12.7 10.8 80 1.8 E 9 13 5 7 - - 0.0
28/10:40pm 14.1 12.7 10.8 80 1.8 ESE 9 13 5 7 - - 0.0
28/10:30pm 14.1 12.7 10.8 80 1.8 ESE 9 11 5 6 - - 0.0
28/10:20pm 14.2 12.4 10.9 80 1.8 E 11 17 6 9 - - 0.0
28/10:10pm 14.2 12.0 10.9 80 1.8 E 13 15 7 8 - - 0.0
28/10:00pm 14.3 11.8 10.9 80 1.9 E 15 20 8 11 - - 0.0
28/09:50pm 14.3 12.9 11.0 80 1.8 E 9 13 5 7 - - 0.0
28/09:40pm 14.4 12.3 11.0 80 1.9 E 13 17 7 9 - - 0.0
28/09:30pm 14.5 11.6 11.1 80 1.9 E 17 24 9 13 - - 0.0
28/09:20pm 14.7 11.5 11.1 79 2.0 E 19 22 10 12 - - 0.0
28/09:10pm 14.8 11.6 11.2 79 2.0 E 19 20 10 11 - - 0.0
28/09:00pm 15.0 11.8 11.3 78 2.1 E 19 28 10 15 - - 0.0
28/08:50pm 15.1 12.3 11.4 78 2.1 E 17 26 9 14 - - 0.0
28/08:40pm 15.3 12.5 11.4 77 2.2 E 17 22 9 12 - - 0.0
28/08:30pm 15.5 11.8 11.5 77 2.2 E 22 28 12 15 - - 0.0
28/08:20pm 15.8 12.5 11.6 76 2.4 E 20 24 11 13 - - 0.0
28/08:10pm 16.1 13.0 11.7 75 2.5 E 19 26 10 14 - - 0.0
28/08:00pm 16.5 12.5 11.7 73 2.7 E 24 32 13 17 - - 0.0
28/07:50pm 16.9 13.3 11.9 72 2.8 E 22 33 12 18 - - 0.0
28/07:40pm 17.4 13.1 12.0 70 3.1 ENE 26 32 14 17 - - 0.0
28/07:30pm 18.0 13.7 12.1 68 3.4 ENE 26 30 14 16 - - 0.0
28/07:20pm 18.8 15.3 12.2 65 3.8 ENE 22 24 12 13 - - 0.0
28/07:10pm 19.5 15.3 12.3 63 4.2 ENE 26 33 14 18 - - 0.0
28/07:00pm 20.1 14.6 12.0 59 4.7 ENE 32 35 17 19 - - 0.0
28/06:50pm 20.8 15.7 12.0 57 5.1 ENE 30 39 16 21 - - 0.0
28/06:40pm 21.4 16.4 12.1 55 5.4 ENE 30 37 16 20 - - 0.0
28/06:30pm 21.9 16.3 12.0 53 5.8 ENE 33 37 18 20 - - 0.0
28/06:20pm 22.5 17.0 12.0 51 6.1 ENE 32 37 17 20 - - 0.0
28/06:10pm 23.8 19.0 11.8 47 7.0 ENE 28 33 15 18 - - 0.0
28/06:00pm 25.7 20.0 2.6 22 11.6 NE 22 26 12 14 - - 0.0
28/05:50pm 25.9 20.8 2.9 22 11.6 ENE 19 22 10 12 - - 0.0
28/05:40pm 26.2 21.4 2.6 21 11.9 ENE 17 19 9 10 - - 0.0
28/05:30pm 26.1 21.2 2.1 21 12.0 NE 17 22 9 12 - - 0.0
28/05:20pm 26.4 21.9 2.1 20 12.2 NNE 15 20 8 11 - - 0.0
28/05:10pm 26.5 22.5 2.6 21 12.1 NNE 13 17 7 9 - - 0.0
28/05:00pm 26.2 21.6 1.6 20 12.2 NNE 15 20 8 11 - - 0.0
28/04:50pm 26.3 20.8 1.8 20 12.2 NNE 20 22 11 12 - - 0.0
28/04:40pm 26.5 21.7 2.5 21 12.1 NNE 17 20 9 11 - - 0.0
28/04:30pm 26.5 21.7 2.7 21 12.1 NE 17 22 9 12 - - 0.0
28/04:20pm 26.8 23.1 2.4 20 12.3 NNE 11 20 6 11 - - 0.0
28/04:10pm 27.1 23.4 2.5 20 12.5 NNE 11 19 6 10 - - 0.0
28/04:00pm 27.6 25.3 2.8 20 12.7 NW 4 9 2 5 - - 0.0
28/03:50pm 26.7 23.9 3.0 21 12.1 NW 7 11 4 6 - - 0.0
28/03:40pm 26.0 23.1 1.5 20 12.1 N 6 11 3 6 - - 0.0
28/03:30pm 26.4 22.6 1.7 20 12.3 N 11 15 6 8 - - 0.0
28/03:20pm 26.3 22.1 1.9 20 12.2 NW 13 19 7 10 - - 0.0
28/03:10pm 26.5 22.7 1.9 20 12.3 NNW 11 15 6 8 - - 0.0
28/03:00pm 27.1 24.1 2.2 20 12.5 SW 7 15 4 8 - - 0.0
28/02:50pm 26.7 23.2 1.3 19 12.6 W 9 13 5 7 - - 0.0
28/02:40pm 26.5 23.1 1.7 20 12.3 W 9 13 5 7 - - 0.0
28/02:30pm 26.5 23.6 1.2 19 12.5 W 6 9 3 5 - - 0.0
28/02:20pm 26.2 22.0 1.4 20 12.2 NW 13 19 7 10 - - 0.0
28/02:10pm 26.1 23.1 1.8 20 12.1 WNW 7 15 4 8 - - 0.0
28/02:00pm 25.9 22.4 1.1 20 12.2 SSW 9 13 5 7 - - 0.0
28/01:50pm 26.1 23.0 1.5 20 12.2 SSE 7 13 4 7 - - 0.0
28/01:40pm 25.8 22.6 2.9 22 11.6 S 9 15 5 8 - - 0.0
28/01:30pm 25.5 22.7 2.3 22 11.6 SSW 6 13 3 7 - - 0.0
28/01:20pm 24.9 21.4 1.4 21 11.5 SSE 9 11 5 6 - - 0.0
28/01:10pm 24.6 20.8 1.9 22 11.2 S 11 13 6 7 - - 0.0
28/01:00pm 24.9 22.1 2.1 22 11.3 SW 6 9 3 5 - - 0.0
28/12:50pm 24.4 21.5 1.4 22 11.2 SW 6 11 3 6 - - 0.0
28/12:40pm 23.7 20.0 2.2 24 10.6 SW 11 13 6 7 - - 0.0
28/12:30pm 23.1 19.2 1.3 23 10.5 SSW 11 13 6 7 - - 0.0
28/12:20pm 23.1 20.0 1.4 24 10.5 S 7 11 4 6 - - 0.0
28/12:10pm 23.2 20.2 2.0 25 10.4 SSW 7 11 4 6 - - 0.0
28/12:00pm 23.4 20.8 1.0 23 10.8 SW 4 7 2 4 - - 0.0
28/11:50am 23.0 20.4 0.8 23 10.6 W 4 7 2 4 - - 0.0
28/11:40am 23.1 19.9 -0.3 21 11.0 SW 6 9 3 5 - - 0.0
28/11:30am 22.1 19.0 0.4 23 10.2 WSW 6 7 3 4 - - 0.0
28/11:20am 21.8 18.7 0.0 23 10.2 WSW 6 7 3 4 - - 0.0
28/11:10am 21.4 18.3 -0.1 24 10.0 WSW 6 7 3 4 - - 0.0
28/11:00am 20.8 17.6 -0.5 24 9.8 WSW 6 7 3 4 - - 0.0
28/10:50am 20.5 17.4 -0.1 25 9.5 W 6 7 3 4 - - 0.0
28/10:40am 20.1 17.3 -0.1 26 9.3 W 4 6 2 3 - - 0.0
28/10:30am 19.8 16.6 -0.2 26 9.1 W 6 7 3 4 - - 0.0
28/10:20am 19.9 17.6 0.3 27 9.1 WSW 2 6 1 3 - - 0.0
28/10:10am 18.8 16.2 -1.7 25 9.0 NNW 2 4 1 2 - - 0.0
28/10:00am 18.2 15.7 -0.8 27 8.5 W 2 4 1 2 - - 0.0
28/09:50am 17.1 14.1 0.7 33 7.5 SSW 6 7 3 4 - - 0.0
28/09:40am 16.4 13.5 1.5 36 6.9 SSW 6 7 3 4 - - 0.0
28/09:30am 16.2 13.3 1.6 37 6.7 SSW 6 7 3 4 - - 0.0
28/09:20am 15.7 12.9 2.0 39 6.3 SSW 6 7 3 4 - - 0.0
28/09:10am 15.7 13.3 2.0 39 6.3 SSE 4 6 2 3 - - 0.0
28/09:00am 15.0 12.5 1.6 40 6.1 S 4 6 2 3 - - 0.0
28/08:50am 14.4 11.9 1.6 42 5.8 SE 4 6 2 3 - - 0.0
28/08:40am 13.9 11.9 2.2 45 5.4 ESE 2 4 1 2 - - 0.0
28/08:30am 12.7 10.7 2.5 50 4.6 NW 2 4 1 2 - - 0.0
28/08:20am 11.8 9.7 1.6 49 4.5 N 2 2 1 1 - - 0.0
28/08:10am 10.3 8.2 1.8 55 3.7 NNW 2 2 1 1 - - 0.0
28/08:00am 9.2 7.0 1.1 57 3.5 WNW 2 2 1 1 - - 0.0
28/07:50am 7.8 5.7 1.4 64 2.7 NE 2 4 1 2 - - 0.0
28/07:40am 6.9 4.4 1.6 69 2.2 NNE 4 4 2 2 - - 0.0
28/07:30am 5.8 3.6 1.2 72 1.9 NE 2 4 1 2 - - 0.0
28/07:20am 4.7 2.5 0.8 76 1.6 ENE 2 2 1 1 - - 0.0
28/07:10am 3.9 1.6 0.5 78 1.4 SSW 2 2 1 1 - - 0.0
28/07:00am 3.5 0.8 0.6 81 1.2 NNE 4 4 2 2 - - 0.0
28/06:50am 4.0 0.9 0.2 76 1.5 NE 6 7 3 4 - - 0.0
28/06:40am 4.2 1.5 0.3 76 1.6 NE 4 6 2 3 - - 0.0
28/06:30am 4.5 2.1 -0.2 71 1.9 E 2 4 1 2 - - 0.0
28/06:20am 4.0 1.2 -0.1 74 1.6 N 4 6 2 3 - - 0.0
28/06:10am 4.6 2.3 0.2 73 1.8 E 2 4 1 2 - - 0.0
28/06:00am 4.5 1.8 0.1 73 1.8 NE 4 4 2 2 - - 0.0
28/05:50am 5.2 2.9 0.4 71 1.9 SE 2 4 1 2 - - 0.0
28/05:40am 4.9 1.8 0.2 71 1.9 NE 6 7 3 4 - - 0.0
28/05:30am 6.3 3.5 -0.3 62 2.7 ENE 4 6 2 3 - - 0.0
28/05:20am 6.4 3.7 0.1 64 2.6 ENE 4 6 2 3 - - 0.0
28/05:10am 6.9 4.6 0.5 64 2.6 S 2 4 1 2 - - 0.0
28/05:00am 7.6 5.2 -0.4 57 3.3 SW 2 4 1 2 - - 0.0
28/04:50am 8.4 5.7 0.0 55 3.5 NNE 4 7 2 4 - - 0.0
28/04:40am 8.8 5.9 -1.0 50 4.0 NE 4 7 2 4 - - 0.0
28/04:30am 8.9 6.1 -0.3 52 3.8 NNW 4 6 2 3 - - 0.0
28/04:20am 10.1 6.9 -0.3 48 4.3 N 6 7 3 4 - - 0.0
28/04:10am 9.4 6.4 -1.8 45 4.5 N 4 6 2 3 - - 0.0
28/04:00am 8.5 5.1 -0.9 51 3.8 N 7 9 4 5 - - 0.0
28/03:50am 8.9 5.9 -1.6 47 4.2 W 4 4 2 2 - - 0.0
28/03:40am 9.1 5.6 -1.6 47 4.3 NW 7 11 4 6 - - 0.0
28/03:30am 9.0 5.0 -1.9 46 4.3 NW 9 11 5 6 - - 0.0
28/03:20am 10.1 6.3 -0.7 47 4.5 NW 9 9 5 5 - - 0.0
28/03:10am 10.3 5.6 -2.0 42 5.0 NW 13 15 7 8 - - 0.0
28/03:00am 10.1 6.1 -2.1 42 4.9 WNW 9 11 5 6 - - 0.0
28/02:50am 10.6 6.6 -2.0 41 5.1 WNW 9 11 5 6 - - 0.0
28/02:40am 10.4 6.4 -2.6 40 5.2 NW 9 9 5 5 - - 0.0
28/02:30am 11.3 7.3 -2.4 38 5.5 WNW 9 9 5 5 - - 0.0
28/02:20am 11.3 7.6 -2.9 37 5.7 NW 7 11 4 6 - - 0.0
28/02:10am 11.2 7.7 -3.1 36 5.7 NNW 6 6 3 3 - - 0.0
28/02:00am 11.7 8.6 -2.8 36 5.8 N 4 6 2 3 - - 0.0
28/01:50am 11.8 8.2 -3.6 34 6.1 NW 6 9 3 5 - - 0.0
28/01:40am 12.7 8.2 -3.2 33 6.4 NW 11 15 6 8 - - 0.0
28/01:30am 13.1 7.8 -3.9 30 6.8 NW 15 15 8 8 - - 0.0
28/01:20am 12.9 7.9 -4.1 30 6.7 NNW 13 15 7 8 - - 0.0
28/01:10am 12.2 8.0 -3.5 33 6.2 N 9 13 5 7 - - 0.0
28/01:00am 12.3 9.1 -3.8 32 6.4 NE 4 6 2 3 - - 0.0
28/12:50am 12.0 8.8 -3.9 32 6.2 ENE 4 4 2 2 - - 0.0
28/12:40am 12.2 9.1 -2.6 35 6.0 NE 4 4 2 2 - - 0.0
28/12:30am 12.6 9.7 -3.9 31 6.5 NE 2 4 1 2 - - 0.0
28/12:20am 13.1 10.4 -2.5 34 6.4 N 2 4 1 2 - - 0.0
28/12:10am 14.1 10.4 -2.7 31 6.9 WNW 7 13 4 7 - - 0.0
28/12:00am 14.6 10.4 -3.8 28 7.4 NW 9 11 5 6 - - 0.0
 
Date/Time
EDT
Temp
°C
App
Temp
°C
Dew
Point
°C
Rel
Hum
%
Delta-T
°C
Wind Press
QNH
hPa
Press
MSL
hPa
Rain since
9am
mm
Dir  Spd
km/h
Gust
km/h
Spd
kts
Gust
kts
27/11:50pm 14.9 11.2 -3.2 28 7.4 NNW 7 11 4 6 - - 0.0
27/11:40pm 15.4 10.5 -3.5 27 7.8 NW 13 15 7 8 - - 0.0
27/11:30pm 15.8 10.8 -3.9 25 8.0 WNW 13 17 7 9 - - 0.0
27/11:20pm 15.7 10.7 -3.9 25 8.0 WNW 13 15 7 8 - - 0.0
27/11:10pm 14.6 9.9 -4.7 26 7.7 NW 11 15 6 8 - - 0.0
27/11:00pm 13.4 10.3 -2.6 33 6.6 NNE 4 6 2 3 - - 0.0
27/10:50pm 14.1 11.0 -3.0 30 7.0 NNE 4 6 2 3 - - 0.0
27/10:40pm 14.0 10.5 -3.2 30 7.0 NE 6 6 3 3 - - 0.0
27/10:30pm 14.3 11.2 -2.9 30 7.1 NE 4 6 2 3 - - 0.0
27/10:20pm 15.0 11.5 -2.9 29 7.4 N 6 7 3 4 - - 0.0
27/10:10pm 16.0 12.2 -3.4 26 8.0 NNW 7 9 4 5 - - 0.0
27/10:00pm 16.2 12.4 -3.9 25 8.2 NW 7 9 4 5 - - 0.0
27/09:50pm 16.6 12.4 -4.3 23 8.5 NNW 9 9 5 5 - - 0.0
27/09:40pm 17.0 12.4 -4.1 23 8.7 NW 11 15 6 8 - - 0.0
27/09:30pm 17.5 12.5 -4.3 22 9.0 NW 13 15 7 8 - - 0.0
27/09:20pm 18.0 12.2 -4.8 21 9.3 WNW 17 19 9 10 - - 0.0
27/09:10pm 18.1 12.2 -5.4 19 9.5 WNW 17 20 9 11 - - 0.0
27/09:00pm 18.2 12.7 -5.7 19 9.6 WNW 15 19 8 10 - - 0.0
27/08:50pm 18.5 13.0 -5.8 18 9.8 WNW 15 17 8 9 - - 0.0
27/08:40pm 19.0 13.4 -6.3 17 10.1 WNW 15 17 8 9 - - 0.0
27/08:30pm 19.3 12.9 -6.4 17 10.3 WNW 19 22 10 12 - - 0.0
27/08:20pm 19.5 13.2 -6.3 17 10.4 WNW 19 20 10 11 - - 0.0
27/08:10pm 19.7 13.2 -6.0 17 10.4 WNW 20 24 11 13 - - 0.0
27/08:00pm 19.9 13.4 -6.3 16 10.6 WNW 20 24 11 13 - - 0.0
27/07:50pm 20.3 13.8 -5.7 17 10.7 W 20 24 11 13 - - 0.0
27/07:40pm 20.6 14.1 -5.7 16 10.8 WNW 20 24 11 13 - - 0.0
27/07:30pm 21.2 14.4 -5.5 16 11.1 W 22 26 12 14 - - 0.0
27/07:20pm 21.7 14.9 -5.2 16 11.3 W 22 28 12 15 - - 0.0
27/07:10pm 22.0 14.9 -4.2 17 11.3 WNW 24 30 13 16 - - 0.0
27/07:00pm 22.3 15.2 -4.5 16 11.5 W 24 28 13 15 - - 0.0
27/06:50pm 22.7 16.4 -3.6 17 11.5 WNW 20 24 11 13 - - 0.0
27/06:40pm 22.9 16.4 -2.7 18 11.4 WNW 22 26 12 14 - - 0.0
27/06:30pm 23.2 16.8 -2.0 18 11.4 WNW 22 26 12 14 - - 0.0
27/06:20pm 23.3 16.5 -1.7 19 11.4 WNW 24 28 13 15 - - 0.0
27/06:10pm 23.5 16.8 -1.0 19 11.4 WNW 24 30 13 16 - - 0.0
27/06:00pm 23.7 17.7 -1.5 18 11.6 WNW 20 26 11 14 - - 0.0
27/05:50pm 23.8 17.0 -1.9 18 11.7 WNW 24 30 13 16 - - 0.0
27/05:40pm 23.9 17.4 -2.6 17 12.0 WNW 22 26 12 14 - - 0.0
27/05:30pm 24.0 17.5 -2.6 17 12.0 W 22 26 12 14 - - 0.0
27/05:20pm 24.2 17.2 -3.3 16 12.3 WNW 24 28 13 15 - - 0.0
27/05:10pm 24.5 18.4 -2.4 16 12.2 WNW 20 28 11 15 - - 0.0
27/05:00pm 24.4 17.9 -2.1 17 12.1 WNW 22 28 12 15 - - 0.0
27/04:50pm 24.6 18.5 -2.7 16 12.4 W 20 24 11 13 - - 0.0
27/04:40pm 24.4 18.0 -4.9 14 12.7 WNW 20 24 11 13 - - 0.0
27/04:30pm 24.5 17.7 -5.5 13 12.9 WNW 22 32 12 17 - - 0.0
27/04:20pm 24.2 17.3 -3.0 16 12.2 WNW 24 28 13 15 - - 0.0
27/04:10pm 24.2 18.1 -2.0 17 12.0 NW 20 26 11 14 - - 0.0
27/04:00pm 24.2 17.9 -0.7 19 11.7 WNW 22 26 12 14 - - 0.0
27/03:50pm 24.0 19.0 1.1 22 11.1 NW 17 24 9 13 - - 0.0
27/03:40pm 24.1 18.7 1.1 22 11.1 WNW 19 26 10 14 - - 0.0
27/03:30pm 23.6 18.2 1.4 23 10.8 NW 19 28 10 15 - - 0.0
27/03:20pm 23.6 18.0 1.5 23 10.7 WNW 20 26 11 14 - - 0.0
27/03:10pm 23.4 17.6 2.1 24 10.4 WNW 22 26 12 14 - - 0.0
27/03:00pm 23.6 18.3 1.9 24 10.6 WNW 19 28 10 15 - - 0.0
27/02:50pm 23.5 18.2 1.8 24 10.6 WNW 19 26 10 14 - - 0.0
27/02:40pm 23.3 18.2 0.6 22 10.8 WNW 17 24 9 13 - - 0.0
27/02:30pm 23.1 17.4 0.4 22 10.8 W 20 28 11 15 - - 0.0
27/02:20pm 22.7 17.3 1.2 24 10.3 WNW 19 26 10 14 - - 0.0
27/02:10pm 22.4 17.8 1.8 25 10.0 W 15 24 8 13 - - 0.0
27/02:00pm 22.1 16.7 1.1 25 10.0 NW 19 26 10 14 - - 0.0
27/01:50pm 22.2 16.8 1.4 25 10.0 W 19 24 10 13 - - 0.0
27/01:40pm 22.0 17.3 1.1 25 10.0 WNW 15 24 8 13 - - 0.0
27/01:30pm 21.9 17.0 -0.4 22 10.3 WNW 15 20 8 11 - - 0.0
27/01:20pm 21.8 17.1 -1.7 20 10.6 WNW 13 26 7 14 - - 0.0
27/01:10pm 21.6 16.6 -1.1 22 10.3 WNW 15 28 8 15 - - 0.0
27/01:00pm 21.0 15.0 1.3 27 9.4 WNW 22 28 12 15 - - 0.0
27/12:50pm 21.1 16.2 2.1 28 9.2 W 17 26 9 14 - - 0.0
27/12:40pm 20.9 15.1 -0.3 24 9.8 W 20 28 11 15 - - 0.0
27/12:30pm 21.0 15.8 0.4 25 9.6 W 17 22 9 12 - - 0.0
27/12:20pm 20.9 15.7 2.4 29 9.0 W 19 22 10 12 - - 0.0
27/12:10pm 20.8 16.1 0.7 26 9.4 NW 15 22 8 12 - - 0.0
27/12:00pm 20.3 15.6 0.9 27 9.1 NW 15 19 8 10 - - 0.0
27/11:50am 20.0 15.5 2.4 31 8.5 NNW 15 19 8 10 - - 0.0
27/11:40am 19.8 14.8 1.6 29 8.6 NNW 17 22 9 12 - - 0.0
27/11:30am 19.4 14.9 4.0 36 7.6 NW 17 22 9 12 - - 0.0
27/11:20am 18.9 14.8 6.1 43 6.6 WNW 17 22 9 12 - - 0.0
27/11:10am 18.4 14.8 6.9 47 6.0 NNW 15 19 8 10 - - 0.0
27/11:00am 18.4 14.5 7.1 47 5.9 NNW 17 20 9 11 - - 0.0
27/10:50am 18.3 14.7 6.7 46 6.0 NNW 15 22 8 12 - - 0.0
27/10:40am 17.9 15.3 7.7 51 5.4 NNW 11 20 6 11 - - 0.0
27/10:30am 17.6 13.4 5.5 45 6.1 N 17 22 9 12 - - 0.0
27/10:20am 17.1 13.0 6.2 48 5.5 N 17 24 9 13 - - 0.0
27/10:10am 16.1 12.7 7.5 56 4.5 N 15 20 8 11 - - 0.0
27/10:00am 16.6 13.3 8.0 57 4.5 NNW 15 20 8 11 - - 0.0
27/09:50am 16.9 14.2 9.1 60 4.2 N 13 20 7 11 - - 0.0
27/09:40am 16.5 13.9 9.2 62 3.9 N 13 20 7 11 - - 0.0
27/09:30am 15.4 13.7 9.7 69 3.1 N 9 11 5 6 - - 0.0
27/09:20am 15.0 12.9 9.7 70 2.8 NNE 11 13 6 7 - - 0.0
27/09:10am 14.6 11.8 10.1 74 2.4 NE 15 20 8 11 - - 0.0
27/09:00am 14.7 12.3 10.0 73 2.5 N 13 17 7 9 - - 0.0
27/08:50am 14.7 12.4 10.4 75 2.3 NE 13 17 7 9 - - 0.0
27/08:40am 14.7 12.8 10.4 75 2.3 NE 11 17 6 9 - - 0.0
27/08:30am 14.4 12.5 10.6 78 2.1 ENE 11 15 6 8 - - 0.0
27/08:20am 13.9 11.6 10.6 80 1.8 ENE 13 17 7 9 - - 0.0
27/08:10am 13.6 11.3 10.6 82 1.6 NE 13 15 7 8 - - 0.0
27/08:00am 13.3 11.8 10.5 83 1.5 NE 9 13 5 7 - - 0.0
27/07:50am 12.8 10.5 10.3 85 1.3 NE 13 15 7 8 - - 0.0
27/07:40am 12.3 10.0 10.3 87 1.1 NE 13 13 7 7 - - 0.0
27/07:30am 11.8 9.4 10.2 90 0.9 NE 13 15 7 8 - - 0.0
27/07:20am 11.7 9.3 10.1 90 0.9 NE 13 15 7 8 - - 0.0
27/07:10am 11.4 9.4 10.0 91 0.7 NE 11 13 6 7 - - 0.0
27/07:00am 11.4 9.4 10.0 91 0.7 NE 11 13 6 7 - - 0.0
27/06:50am 11.2 9.5 9.9 92 0.7 NE 9 9 5 5 - - 0.0
27/06:40am 10.9 8.8 9.9 93 0.5 NE 11 11 6 6 - - 0.0
27/06:30am 10.8 8.7 9.8 93 0.5 NNE 11 13 6 7 - - 0.0
27/06:20am 11.1 9.8 9.8 92 0.7 NE 7 11 4 6 - - 0.0
27/06:10am 11.1 9.8 10.0 93 0.6 NE 7 9 4 5 - - 0.0
27/06:00am 10.9 9.6 10.1 95 0.4 NE 7 9 4 5 - - 0.0
27/05:50am 11.0 9.3 9.9 93 0.6 NNE 9 11 5 6 - - 0.0
27/05:40am 11.5 9.5 10.2 92 0.7 NE 11 11 6 6 - - 0.0
27/05:30am 11.7 9.7 10.3 91 0.7 NE 11 13 6 7 - - 0.0
27/05:20am 12.0 10.1 10.4 90 0.9 NE 11 13 6 7 - - 0.0
27/05:10am 12.2 9.5 10.4 89 1.0 NE 15 17 8 9 - - 0.0
27/05:00am 12.3 9.3 10.5 89 1.0 NE 17 20 9 11 - - 0.0
27/04:50am 12.4 9.0 10.5 88 1.0 NE 19 22 10 12 - - 0.0
27/04:40am 12.4 9.0 10.5 88 1.0 NE 19 20 10 11 - - 0.0
27/04:30am 12.4 8.8 10.6 89 1.0 NE 20 24 11 13 - - 0.0
27/04:20am 12.4 8.8 10.6 89 1.0 NE 20 22 11 12 - - 0.0
27/04:10am 12.4 9.0 10.6 89 1.0 NE 19 20 10 11 - - 0.0
27/04:00am 12.4 9.4 10.6 89 1.0 NE 17 20 9 11 - - 0.0
27/03:50am 12.3 9.3 10.6 89 0.9 NE 17 19 9 10 - - 0.0
27/03:40am 12.2 9.9 10.6 90 0.9 NE 13 17 7 9 - - 0.0
27/03:30am 11.9 10.4 10.5 91 0.8 NNE 9 11 5 6 - - 0.0
27/03:20am 11.5 10.9 10.5 94 0.5 NNE 4 6 2 3 - - 0.0
27/03:10am 11.4 10.5 10.5 94 0.5 SSE 6 6 3 3 - - 0.0
27/03:00am 11.5 10.9 10.4 93 0.6 SSE 4 6 2 3 - - 0.0
27/02:50am 11.7 10.8 10.5 92 0.6 SE 6 7 3 4 - - 0.0
27/02:40am 11.8 10.9 10.8 94 0.5 SE 6 7 3 4 - - 0.0
27/02:30am 12.3 11.2 10.8 90 0.8 ESE 7 9 4 5 - - 0.0
27/02:20am 12.2 11.1 10.7 90 0.8 ESE 7 9 4 5 - - 0.0
27/02:10am 12.2 10.7 10.7 90 0.8 SE 9 9 5 5 - - 0.0
27/02:00am 12.5 11.5 10.9 90 0.9 SSE 7 9 4 5 - - 0.0
27/01:50am 12.5 11.5 10.9 90 0.9 SE 7 9 4 5 - - 0.0
27/01:40am 12.6 11.2 10.9 89 0.9 SE 9 11 5 6 - - 0.0
27/01:30am 12.6 11.2 11.0 90 0.9 SE 9 11 5 6 - - 0.0
27/01:20am 12.7 11.3 11.0 89 0.9 SE 9 11 5 6 - - 0.0
27/01:10am 12.7 10.9 11.0 89 0.9 SE 11 13 6 7 - - 0.0
27/01:00am 12.7 11.7 11.0 89 0.9 SSE 7 9 4 5 - - 0.0
27/12:50am 12.7 11.9 11.1 90 0.9 SSE 6 9 3 5 - - 0.0
27/12:40am 12.8 12.4 11.2 90 0.9 SSW 4 6 2 3 - - 0.0
27/12:30am 12.9 12.5 11.2 89 0.9 ESE 4 6 2 3 - - 0.0
27/12:20am 13.0 12.1 11.3 89 0.9 NE 7 15 4 8 - - 0.0
27/12:10am 13.1 10.7 11.3 89 1.0 NE 15 20 8 11 - - 0.0
27/12:00am 13.2 10.4 11.4 89 1.0 NE 17 20 9 11 - - 0.0
 
Date/Time
EDT
Temp
°C
App
Temp
°C
Dew
Point
°C
Rel
Hum
%
Delta-T
°C
Wind Press
QNH
hPa
Press
MSL
hPa
Rain since
9am
mm
Dir  Spd
km/h
Gust
km/h
Spd
kts
Gust
kts
26/11:50pm 13.4 11.0 11.5 88 1.0 NE 15 20 8 11 - - 0.0
26/11:40pm 13.6 10.5 11.6 88 1.1 NE 19 20 10 11 - - 0.0
26/11:30pm 13.8 11.1 11.7 87 1.2 NE 17 19 9 10 - - 0.0
26/11:20pm 13.9 11.6 11.8 87 1.2 NE 15 19 8 10 - - 0.0
26/11:10pm 14.0 11.7 11.8 86 1.2 NE 15 17 8 9 - - 0.0
26/11:00pm 14.0 11.7 11.8 86 1.2 NE 15 17 8 9 - - 0.0
26/10:50pm 14.2 10.9 11.7 85 1.4 NE 20 26 11 14 - - 0.0
26/10:40pm 14.3 10.7 11.7 84 1.4 NE 22 24 12 13 - - 0.0
26/10:30pm 14.4 10.8 11.7 84 1.5 NE 22 28 12 15 - - 0.0
26/10:20pm 14.5 10.1 11.7 83 1.6 NE 26 28 14 15 - - 0.0
26/10:10pm 14.6 10.2 11.8 83 1.6 NE 26 30 14 16 - - 0.0
26/10:00pm 14.8 11.6 11.8 82 1.7 NE 20 24 11 13 - - 0.0
26/09:50pm 15.0 11.7 11.7 80 1.8 NE 20 26 11 14 - - 0.0
26/09:40pm 16.0 13.3 11.8 76 2.4 ENE 17 28 9 15 - - 0.0
26/09:30pm 17.1 13.6 10.9 67 3.5 ENE 20 26 11 14 - - 0.0
26/09:20pm 19.0 17.0 10.2 56 4.9 N 11 19 6 10 - - 0.0
26/09:10pm 19.9 17.0 6.7 42 6.9 NW 11 13 6 7 - - 0.0
26/09:00pm 20.1 17.2 6.4 41 7.1 NW 11 17 6 9 - - 0.0
26/08:50pm 20.4 16.7 6.3 40 7.3 NW 15 15 8 8 - - 0.0
26/08:40pm 20.6 16.9 6.2 39 7.5 WNW 15 19 8 10 - - 0.0
26/08:30pm 20.8 16.6 5.7 37 7.8 WNW 17 20 9 11 - - 0.0
26/08:20pm 21.1 16.8 5.4 36 8.1 WNW 17 20 9 11 - - 0.0
26/08:10pm 21.4 16.6 4.9 34 8.4 NW 19 24 10 13 - - 0.0
26/08:00pm 21.4 18.1 4.5 33 8.6 NW 11 13 6 7 - - 0.0
26/07:50pm 22.1 18.8 4.4 31 9.0 NW 11 13 6 7 - - 0.0
26/07:40pm 22.7 18.9 3.8 29 9.5 NW 13 17 7 9 - - 0.0
26/07:30pm 23.2 18.2 3.4 27 9.9 NW 19 22 10 12 - - 0.0
26/07:20pm 23.7 18.6 3.2 26 10.3 WNW 19 24 10 13 - - 0.0
26/07:10pm 24.1 18.4 2.8 25 10.6 WNW 22 30 12 16 - - 0.0
26/07:00pm 24.6 18.7 1.8 22 11.2 W 22 28 12 15 - - 0.0
26/06:50pm 24.9 18.8 2.5 23 11.2 W 24 28 13 15 - - 0.0
26/06:40pm 25.3 19.5 2.5 22 11.4 W 22 30 12 16 - - 0.0
26/06:30pm 25.6 20.2 1.4 20 11.9 W 19 26 10 14 - - 0.0
26/06:20pm 25.7 20.4 1.8 21 11.8 WNW 19 24 10 13 - - 0.0
26/06:10pm 25.8 19.6 1.9 21 11.9 W 24 35 13 19 - - 0.0
26/06:00pm 26.0 19.9 2.8 22 11.7 W 24 30 13 16 - - 0.0
26/05:50pm 26.1 19.8 1.7 20 12.1 W 24 30 13 16 - - 0.0
26/05:40pm 26.4 19.8 1.8 20 12.2 W 26 30 14 16 - - 0.0
26/05:30pm 26.4 19.8 1.8 20 12.2 W 26 30 14 16 - - 0.0
26/05:20pm 26.6 19.4 0.9 18 12.6 W 28 35 15 19 - - 0.0
26/05:10pm 26.5 18.2 -0.1 17 12.8 W 33 39 18 21 - - 0.0
26/05:00pm 26.6 18.3 -0.1 17 12.9 W 33 37 18 20 - - 0.0
26/04:50pm 26.6 17.2 -0.2 17 12.9 W 39 50 21 27 - - 0.0
26/04:40pm 26.8 17.1 0.3 17 12.9 W 41 48 22 26 - - 0.0
26/04:30pm 26.8 16.6 -0.4 17 13.1 W 43 50 23 27 - - 0.0
26/04:20pm 27.0 17.9 1.6 19 12.7 W 39 46 21 25 - - 0.0
26/04:10pm 26.7 17.8 2.9 21 12.1 W 39 44 21 24 - - 0.0
26/04:00pm 26.6 17.8 3.8 23 11.8 W 39 50 21 27 - - 0.0
26/03:50pm 26.8 19.6 7.8 30 10.5 W 35 41 19 22 - - 0.0
26/03:40pm 27.0 19.9 8.0 30 10.6 W 35 41 19 22 - - 0.0
26/03:30pm 27.2 20.5 8.0 29 10.7 W 33 44 18 24 - - 0.0
26/03:20pm 27.0 18.2 8.1 30 10.5 W 44 50 24 27 - - 0.0
26/03:10pm 27.2 18.6 8.2 30 10.6 W 43 48 23 26 - - 0.0
26/03:00pm 27.2 19.0 8.4 30 10.5 WSW 41 50 22 27 - - 0.0
26/02:50pm 27.4 19.3 8.8 31 10.5 WSW 41 46 22 25 - - 0.0
26/02:40pm 27.8 20.7 8.1 29 11.0 W 35 43 19 23 - - 0.0
26/02:30pm 27.6 19.8 8.3 29 10.8 W 39 46 21 25 - - 0.0
26/02:20pm 27.3 18.9 7.2 28 11.1 W 41 50 22 27 - - 0.0
26/02:10pm 27.3 18.4 6.9 27 11.2 W 43 50 23 27 - - 0.0
26/02:00pm 27.1 17.4 5.9 26 11.4 WNW 46 54 25 29 - - 0.0
26/01:50pm 27.3 18.5 5.7 25 11.6 WNW 41 52 22 28 - - 0.0
26/01:40pm 27.0 19.3 8.6 31 10.3 WNW 39 44 21 24 - - 0.0
26/01:30pm 26.6 18.4 9.6 34 9.7 W 43 48 23 26 - - 0.0
26/01:20pm 26.2 18.1 10.1 36 9.2 WNW 43 50 23 27 - - 0.0
26/01:10pm 26.0 19.3 11.1 39 8.7 WNW 37 46 20 25 - - 0.0
26/01:00pm 25.6 18.8 13.0 45 7.6 WNW 41 46 22 25 - - 0.0
26/12:50pm 25.4 19.6 12.7 45 7.6 WNW 35 44 19 24 - - 0.0
26/12:40pm 24.8 20.0 14.7 53 6.2 WNW 33 39 18 21 - - 0.0
26/12:30pm 24.6 20.8 14.7 54 6.1 WNW 28 35 15 19 - - 0.0
26/12:20pm 24.3 19.7 14.7 55 5.9 WNW 32 43 17 23 - - 0.0
26/12:10pm 24.0 20.5 14.5 55 5.8 WNW 26 32 14 17 - - 0.0
26/12:00pm 23.6 19.1 15.3 59 5.1 WNW 33 43 18 23 - - 0.0
26/11:50am 23.8 19.3 15.4 59 5.2 WNW 33 41 18 22 - - 0.0
26/11:40am 22.8 18.6 15.6 64 4.5 WNW 32 39 17 21 - - 0.0
26/11:30am 22.7 18.3 15.6 64 4.4 WNW 33 44 18 24 - - 0.0
26/11:20am 22.4 18.1 15.4 64 4.3 WNW 32 39 17 21 - - 0.0
26/11:10am 22.0 18.7 16.0 68 3.7 WNW 28 32 15 17 - - 0.0
26/11:00am 21.8 17.6 15.6 68 3.8 NW 32 39 17 21 - - 0.0
26/10:50am 21.9 17.7 15.6 67 3.9 WNW 32 41 17 22 - - 0.0
26/10:40am 21.4 17.9 15.6 69 3.6 NW 28 32 15 17 - - 0.0
26/10:30am 21.4 18.8 16.0 71 3.3 WNW 24 32 13 17 - - 0.0
26/10:20am 21.3 18.0 16.0 72 3.3 WNW 28 32 15 17 - - 0.0
26/10:10am 21.0 18.5 16.2 74 3.0 WNW 24 33 13 18 - - 0.0
26/10:00am 20.5 18.4 16.3 77 2.6 WNW 22 30 12 16 - - 0.0
26/09:50am 20.1 18.0 17.1 83 1.9 WNW 24 32 13 17 - - 0.0
26/09:40am 20.6 18.1 16.1 75 2.8 WNW 24 37 13 20 - - 0.0
26/09:30am 20.7 18.5 15.9 74 3.0 WNW 22 26 12 14 - - 0.0
26/09:20am 20.9 19.3 16.0 73 3.0 WNW 19 22 10 12 - - 0.0
26/09:10am 20.9 19.0 15.8 72 3.1 NW 20 22 11 12 - - 0.0
26/09:00am 21.0 18.7 15.7 71 3.3 WNW 22 26 12 14 - - 0.0
26/08:50am 21.0 18.8 15.9 72 3.2 WNW 22 32 12 17 - - 0.0
26/08:40am 21.0 18.4 16.0 73 3.1 WNW 24 28 13 15 - - 0.0
26/08:30am 21.0 18.4 15.8 72 3.2 WNW 24 32 13 17 - - 0.0
26/08:20am 20.9 18.6 15.7 72 3.2 WNW 22 28 12 15 - - 0.0
26/08:10am 20.8 18.8 15.5 71 3.3 WNW 20 28 11 15 - - 0.0
26/08:00am 20.7 17.8 15.2 71 3.4 WNW 24 28 13 15 - - 0.0
26/07:50am 20.5 18.6 15.2 71 3.2 NW 19 24 10 13 - - 0.0
26/07:40am 20.2 18.2 14.9 71 3.2 NW 19 24 10 13 - - 0.0
26/07:30am 19.9 18.2 14.8 72 3.1 NW 17 24 9 13 - - 0.0
26/07:20am 19.7 18.0 14.7 73 3.0 NW 17 20 9 11 - - 0.0
26/07:10am 19.7 18.6 14.3 71 3.2 NNW 13 19 7 10 - - 0.0
26/07:00am 19.8 18.7 14.2 70 3.3 NNW 13 17 7 9 - - 0.0
26/06:50am 19.9 18.4 14.1 69 3.5 NNW 15 17 8 9 - - 0.0
26/06:40am 20.0 18.0 14.0 68 3.6 NW 17 20 9 11 - - 0.0
26/06:30am 20.2 17.8 13.9 67 3.8 NW 19 22 10 12 - - 0.0
26/06:20am 20.4 17.8 13.9 66 3.9 NW 20 26 11 14 - - 0.0
26/06:10am 20.5 17.1 13.7 65 4.0 NW 24 26 13 14 - - 0.0
26/06:00am 20.5 17.4 13.5 64 4.1 NW 22 24 12 13 - - 0.0
26/05:50am 20.3 17.7 13.3 64 4.1 NW 19 22 10 12 - - 0.0
26/05:40am 20.4 17.7 13.0 62 4.3 NW 19 20 10 11 - - 0.0
26/05:30am 20.5 17.8 13.0 62 4.4 NW 19 20 10 11 - - 0.0
26/05:20am 20.7 17.8 12.8 60 4.6 NW 20 24 11 13 - - 0.0
26/05:10am 20.6 17.7 12.4 59 4.8 NW 19 22 10 12 - - 0.0
26/05:00am 20.2 18.1 12.3 60 4.6 NW 15 17 8 9 - - 0.0
26/04:50am 19.8 18.8 12.3 62 4.3 NW 9 13 5 7 - - 0.0
26/04:40am 19.8 18.4 12.3 62 4.3 NW 11 15 6 8 - - 0.0
26/04:30am 19.9 18.5 12.2 61 4.4 NNW 11 13 6 7 - - 0.0
26/04:20am 19.8 18.3 12.0 60 4.5 NNW 11 15 6 8 - - 0.0
26/04:10am 19.8 18.7 12.0 60 4.5 NNW 9 13 5 7 - - 0.0
26/04:00am 19.8 18.8 12.2 61 4.4 NNW 9 13 5 7 - - 0.0
26/03:50am 20.1 19.1 12.3 61 4.5 NNW 9 11 5 6 - - 0.0
26/03:40am 20.3 19.3 12.2 59 4.7 NW 9 11 5 6 - - 0.0
26/03:30am 20.3 19.2 12.0 59 4.8 NNW 9 11 5 6 - - 0.0
26/03:20am 20.6 19.5 12.1 58 4.9 NNW 9 13 5 7 - - 0.0
26/03:10am 20.8 19.3 12.0 57 5.1 NNW 11 15 6 8 - - 0.0
26/03:00am 20.9 18.6 11.9 56 5.2 N 15 19 8 10 - - 0.0
26/02:50am 21.1 18.8 11.9 55 5.3 N 15 15 8 8 - - 0.0
26/02:40am 21.1 18.9 12.0 56 5.3 N 15 17 8 9 - - 0.0
26/02:30am 21.3 19.5 12.0 55 5.4 NNW 13 17 7 9 - - 0.0

Other formats

Comma delimited format used in spreadsheet applications
http://www.bom.gov.au/fwo/IDN60801/IDN60801.99764.axf

JavaScript Object Notation format (JSON) in row-major order
http://www.bom.gov.au/fwo/IDN60801/IDN60801.99764.json

Data quality

Most of these data are generated automatically and are frequently updated. Quality checks on data are not normally performed. It is possible for incorrect values to appear. Refer to information at About Latest Weather Observations and please check the disclaimer before using these data.